sensor_id;sensor_type;location;lat;lon;timestamp;P1;durP1;ratioP1;P2;durP2;ratioP2
65583;SDS011;62116;43.582;1.470;2022-12-18T00:00:59;12.35;;;8.05;;
65583;SDS011;62116;43.582;1.470;2022-12-18T00:03:25;13.60;;;8.02;;
65583;SDS011;62116;43.582;1.470;2022-12-18T00:05:51;15.40;;;8.73;;
65583;SDS011;62116;43.582;1.470;2022-12-18T00:08:17;15.25;;;8.35;;
65583;SDS011;62116;43.582;1.470;2022-12-18T00:10:43;13.05;;;7.63;;
65583;SDS011;62116;43.582;1.470;2022-12-18T00:13:10;12.18;;;7.10;;
65583;SDS011;62116;43.582;1.470;2022-12-18T00:15:36;11.95;;;7.03;;
65583;SDS011;62116;43.582;1.470;2022-12-18T00:18:02;11.43;;;7.10;;
65583;SDS011;62116;43.582;1.470;2022-12-18T00:20:28;13.13;;;6.90;;
65583;SDS011;62116;43.582;1.470;2022-12-18T00:22:53;11.77;;;7.05;;
65583;SDS011;62116;43.582;1.470;2022-12-18T00:25:19;12.45;;;7.25;;
65583;SDS011;62116;43.582;1.470;2022-12-18T00:27:45;10.30;;;6.72;;
65583;SDS011;62116;43.582;1.470;2022-12-18T00:30:10;12.35;;;6.70;;
65583;SDS011;62116;43.582;1.470;2022-12-18T00:32:36;10.48;;;6.85;;
65583;SDS011;62116;43.582;1.470;2022-12-18T00:35:02;12.70;;;7.40;;
65583;SDS011;62116;43.582;1.470;2022-12-18T00:37:28;11.70;;;7.03;;
65583;SDS011;62116;43.582;1.470;2022-12-18T00:39:54;12.45;;;7.25;;
65583;SDS011;62116;43.582;1.470;2022-12-18T00:42:19;10.85;;;6.45;;
65583;SDS011;62116;43.582;1.470;2022-12-18T00:45:03;9.95;;;6.63;;
65583;SDS011;62116;43.582;1.470;2022-12-18T00:47:29;11.82;;;6.47;;
65583;SDS011;62116;43.582;1.470;2022-12-18T00:49:54;12.65;;;7.00;;
65583;SDS011;62116;43.582;1.470;2022-12-18T00:52:19;11.07;;;6.68;;
65583;SDS011;62116;43.582;1.470;2022-12-18T00:54:45;11.18;;;6.78;;
65583;SDS011;62116;43.582;1.470;2022-12-18T00:57:10;12.57;;;6.40;;
65583;SDS011;62116;43.582;1.470;2022-12-18T00:59:35;10.05;;;6.47;;
65583;SDS011;62116;43.582;1.470;2022-12-18T01:02:01;11.48;;;6.75;;
65583;SDS011;62116;43.582;1.470;2022-12-18T01:04:26;10.82;;;6.45;;
65583;SDS011;62116;43.582;1.470;2022-12-18T01:06:51;11.63;;;6.68;;
65583;SDS011;62116;43.582;1.470;2022-12-18T01:09:17;9.48;;;6.15;;
65583;SDS011;62116;43.582;1.470;2022-12-18T01:11:42;10.65;;;6.30;;
65583;SDS011;62116;43.582;1.470;2022-12-18T01:14:08;11.25;;;6.50;;
65583;SDS011;62116;43.582;1.470;2022-12-18T01:16:33;11.55;;;6.53;;
65583;SDS011;62116;43.582;1.470;2022-12-18T01:18:59;9.70;;;6.38;;
65583;SDS011;62116;43.582;1.470;2022-12-18T01:21:24;11.10;;;6.60;;
65583;SDS011;62116;43.582;1.470;2022-12-18T01:23:53;10.50;;;6.38;;
65583;SDS011;62116;43.582;1.470;2022-12-18T01:26:20;11.88;;;6.55;;
65583;SDS011;62116;43.582;1.470;2022-12-18T01:28:45;10.32;;;6.30;;
65583;SDS011;62116;43.582;1.470;2022-12-18T01:31:18;10.52;;;6.40;;
65583;SDS011;62116;43.582;1.470;2022-12-18T01:33:47;10.45;;;6.72;;
65583;SDS011;62116;43.582;1.470;2022-12-18T01:36:20;11.73;;;6.43;;
65583;SDS011;62116;43.582;1.470;2022-12-18T01:38:46;10.50;;;6.60;;
65583;SDS011;62116;43.582;1.470;2022-12-18T01:41:13;11.55;;;6.68;;
65583;SDS011;62116;43.582;1.470;2022-12-18T01:43:47;11.60;;;6.72;;
65583;SDS011;62116;43.582;1.470;2022-12-18T01:46:13;10.80;;;6.15;;
65583;SDS011;62116;43.582;1.470;2022-12-18T01:48:39;9.70;;;6.10;;
65583;SDS011;62116;43.582;1.470;2022-12-18T01:51:06;11.30;;;6.80;;
65583;SDS011;62116;43.582;1.470;2022-12-18T01:53:34;10.40;;;6.72;;
65583;SDS011;62116;43.582;1.470;2022-12-18T01:56:00;11.07;;;6.93;;
65583;SDS011;62116;43.582;1.470;2022-12-18T01:58:35;11.82;;;7.03;;
65583;SDS011;62116;43.582;1.470;2022-12-18T02:01:25;11.82;;;6.93;;
65583;SDS011;62116;43.582;1.470;2022-12-18T02:03:51;10.43;;;6.80;;
65583;SDS011;62116;43.582;1.470;2022-12-18T02:06:19;13.98;;;7.10;;
65583;SDS011;62116;43.582;1.470;2022-12-18T02:09:11;12.98;;;7.15;;
65583;SDS011;62116;43.582;1.470;2022-12-18T02:11:49;12.50;;;7.03;;
65583;SDS011;62116;43.582;1.470;2022-12-18T02:19:39;13.02;;;7.28;;
65583;SDS011;62116;43.582;1.470;2022-12-18T02:25:01;11.73;;;6.80;;
65583;SDS011;62116;43.582;1.470;2022-12-18T02:27:51;12.63;;;7.30;;
65583;SDS011;62116;43.582;1.470;2022-12-18T02:30:18;13.00;;;7.20;;
65583;SDS011;62116;43.582;1.470;2022-12-18T02:32:48;12.48;;;7.25;;
65583;SDS011;62116;43.582;1.470;2022-12-18T02:35:17;12.65;;;7.47;;
65583;SDS011;62116;43.582;1.470;2022-12-18T02:37:47;11.45;;;7.13;;
65583;SDS011;62116;43.582;1.470;2022-12-18T02:40:13;11.45;;;6.90;;
65583;SDS011;62116;43.582;1.470;2022-12-18T02:42:40;13.75;;;7.35;;
65583;SDS011;62116;43.582;1.470;2022-12-18T02:45:05;13.25;;;7.85;;
65583;SDS011;62116;43.582;1.470;2022-12-18T02:47:33;11.40;;;7.38;;
65583;SDS011;62116;43.582;1.470;2022-12-18T02:53:04;11.27;;;7.18;;
65583;SDS011;62116;43.582;1.470;2022-12-18T02:55:41;12.95;;;7.30;;
65583;SDS011;62116;43.582;1.470;2022-12-18T02:58:49;12.45;;;7.28;;
65583;SDS011;62116;43.582;1.470;2022-12-18T03:03:54;12.45;;;7.20;;
65583;SDS011;62116;43.582;1.470;2022-12-18T03:06:24;12.40;;;7.22;;
65583;SDS011;62116;43.582;1.470;2022-12-18T03:09:24;16.05;;;7.63;;
65583;SDS011;62116;43.582;1.470;2022-12-18T03:11:58;12.75;;;7.60;;
65583;SDS011;62116;43.582;1.470;2022-12-18T03:17:33;12.52;;;7.40;;
65583;SDS011;62116;43.582;1.470;2022-12-18T03:20:02;13.02;;;7.70;;
65583;SDS011;62116;43.582;1.470;2022-12-18T03:22:33;12.52;;;7.88;;
65583;SDS011;62116;43.582;1.470;2022-12-18T03:25:00;11.75;;;7.57;;
65583;SDS011;62116;43.582;1.470;2022-12-18T03:27:29;13.95;;;8.13;;
65583;SDS011;62116;43.582;1.470;2022-12-18T03:30:00;16.83;;;8.75;;
65583;SDS011;62116;43.582;1.470;2022-12-18T03:32:33;14.25;;;7.80;;
65583;SDS011;62116;43.582;1.470;2022-12-18T03:35:06;13.13;;;8.13;;
65583;SDS011;62116;43.582;1.470;2022-12-18T03:37:35;13.68;;;7.35;;
65583;SDS011;62116;43.582;1.470;2022-12-18T03:40:01;11.40;;;6.78;;
65583;SDS011;62116;43.582;1.470;2022-12-18T03:42:32;11.88;;;7.07;;
65583;SDS011;62116;43.582;1.470;2022-12-18T03:45:13;9.95;;;6.18;;
65583;SDS011;62116;43.582;1.470;2022-12-18T03:47:49;12.20;;;6.72;;
65583;SDS011;62116;43.582;1.470;2022-12-18T03:53:25;10.98;;;6.38;;
65583;SDS011;62116;43.582;1.470;2022-12-18T03:55:59;11.85;;;6.57;;
65583;SDS011;62116;43.582;1.470;2022-12-18T03:58:26;12.70;;;6.93;;
65583;SDS011;62116;43.582;1.470;2022-12-18T04:00:55;11.90;;;7.15;;
65583;SDS011;62116;43.582;1.470;2022-12-18T04:05:50;12.65;;;7.18;;
65583;SDS011;62116;43.582;1.470;2022-12-18T04:08:19;12.18;;;6.70;;
65583;SDS011;62116;43.582;1.470;2022-12-18T04:10:46;13.57;;;7.47;;
65583;SDS011;62116;43.582;1.470;2022-12-18T04:13:12;11.77;;;7.43;;
65583;SDS011;62116;43.582;1.470;2022-12-18T04:15:37;10.95;;;7.05;;
65583;SDS011;62116;43.582;1.470;2022-12-18T04:18:03;11.50;;;7.50;;
65583;SDS011;62116;43.582;1.470;2022-12-18T04:20:29;12.13;;;7.22;;
65583;SDS011;62116;43.582;1.470;2022-12-18T04:22:55;11.23;;;6.80;;
65583;SDS011;62116;43.582;1.470;2022-12-18T04:25:20;13.00;;;7.15;;
65583;SDS011;62116;43.582;1.470;2022-12-18T04:27:45;11.77;;;6.80;;
65583;SDS011;62116;43.582;1.470;2022-12-18T04:30:11;10.95;;;6.65;;
65583;SDS011;62116;43.582;1.470;2022-12-18T04:32:36;10.38;;;6.35;;
65583;SDS011;62116;43.582;1.470;2022-12-18T04:35:02;10.90;;;6.60;;
65583;SDS011;62116;43.582;1.470;2022-12-18T04:37:29;10.98;;;6.70;;
65583;SDS011;62116;43.582;1.470;2022-12-18T04:39:54;8.88;;;6.10;;
65583;SDS011;62116;43.582;1.470;2022-12-18T04:42:20;9.13;;;6.10;;
65583;SDS011;62116;43.582;1.470;2022-12-18T04:44:46;9.27;;;5.82;;
65583;SDS011;62116;43.582;1.470;2022-12-18T04:47:12;11.52;;;6.13;;
65583;SDS011;62116;43.582;1.470;2022-12-18T04:49:37;10.52;;;6.00;;
65583;SDS011;62116;43.582;1.470;2022-12-18T04:52:02;10.80;;;6.55;;
65583;SDS011;62116;43.582;1.470;2022-12-18T04:54:28;10.40;;;6.18;;
65583;SDS011;62116;43.582;1.470;2022-12-18T04:56:53;10.65;;;6.22;;
65583;SDS011;62116;43.582;1.470;2022-12-18T04:59:19;10.00;;;5.88;;
65583;SDS011;62116;43.582;1.470;2022-12-18T05:01:44;9.85;;;6.15;;
65583;SDS011;62116;43.582;1.470;2022-12-18T05:04:10;10.25;;;5.90;;
65583;SDS011;62116;43.582;1.470;2022-12-18T05:06:36;11.70;;;6.57;;
65583;SDS011;62116;43.582;1.470;2022-12-18T05:09:01;10.15;;;5.65;;
65583;SDS011;62116;43.582;1.470;2022-12-18T05:11:26;10.18;;;5.93;;
65583;SDS011;62116;43.582;1.470;2022-12-18T05:13:52;9.57;;;5.88;;
65583;SDS011;62116;43.582;1.470;2022-12-18T05:16:17;10.60;;;6.20;;
65583;SDS011;62116;43.582;1.470;2022-12-18T05:18:43;9.57;;;6.10;;
65583;SDS011;62116;43.582;1.470;2022-12-18T05:21:08;10.93;;;6.28;;
65583;SDS011;62116;43.582;1.470;2022-12-18T05:23:35;10.43;;;6.40;;
65583;SDS011;62116;43.582;1.470;2022-12-18T05:26:02;8.90;;;6.03;;
65583;SDS011;62116;43.582;1.470;2022-12-18T05:28:29;9.73;;;5.78;;
65583;SDS011;62116;43.582;1.470;2022-12-18T05:31:00;9.30;;;5.55;;
65583;SDS011;62116;43.582;1.470;2022-12-18T05:35:54;9.27;;;5.50;;
65583;SDS011;62116;43.582;1.470;2022-12-18T05:38:22;8.95;;;5.40;;
65583;SDS011;62116;43.582;1.470;2022-12-18T05:40:49;9.60;;;5.43;;
65583;SDS011;62116;43.582;1.470;2022-12-18T05:43:15;8.63;;;5.35;;
65583;SDS011;62116;43.582;1.470;2022-12-18T05:45:41;9.30;;;5.60;;
65583;SDS011;62116;43.582;1.470;2022-12-18T05:48:07;9.50;;;5.65;;
65583;SDS011;62116;43.582;1.470;2022-12-18T05:50:37;8.82;;;5.55;;
65583;SDS011;62116;43.582;1.470;2022-12-18T05:53:04;9.00;;;5.40;;
65583;SDS011;62116;43.582;1.470;2022-12-18T05:55:34;10.40;;;5.93;;
65583;SDS011;62116;43.582;1.470;2022-12-18T05:58:00;9.02;;;5.78;;
65583;SDS011;62116;43.582;1.470;2022-12-18T06:00:26;8.30;;;5.40;;
65583;SDS011;62116;43.582;1.470;2022-12-18T06:02:51;9.88;;;5.53;;
65583;SDS011;62116;43.582;1.470;2022-12-18T06:05:16;9.68;;;5.43;;
65583;SDS011;62116;43.582;1.470;2022-12-18T06:07:42;8.90;;;5.55;;
65583;SDS011;62116;43.582;1.470;2022-12-18T06:10:07;10.48;;;5.80;;
65583;SDS011;62116;43.582;1.470;2022-12-18T06:12:33;10.68;;;6.22;;
65583;SDS011;62116;43.582;1.470;2022-12-18T06:14:58;9.73;;;5.40;;
65583;SDS011;62116;43.582;1.470;2022-12-18T06:17:28;9.70;;;5.88;;
65583;SDS011;62116;43.582;1.470;2022-12-18T06:19:54;9.43;;;5.80;;
65583;SDS011;62116;43.582;1.470;2022-12-18T06:22:20;8.80;;;5.55;;
65583;SDS011;62116;43.582;1.470;2022-12-18T06:24:45;10.35;;;5.63;;
65583;SDS011;62116;43.582;1.470;2022-12-18T06:27:11;11.70;;;6.03;;
65583;SDS011;62116;43.582;1.470;2022-12-18T06:29:36;13.52;;;5.88;;
65583;SDS011;62116;43.582;1.470;2022-12-18T06:32:01;8.27;;;5.18;;
65583;SDS011;62116;43.582;1.470;2022-12-18T06:34:27;8.68;;;5.50;;
65583;SDS011;62116;43.582;1.470;2022-12-18T06:36:52;8.68;;;5.22;;
65583;SDS011;62116;43.582;1.470;2022-12-18T06:39:17;8.18;;;5.50;;
65583;SDS011;62116;43.582;1.470;2022-12-18T06:41:43;8.82;;;5.38;;
65583;SDS011;62116;43.582;1.470;2022-12-18T06:44:08;9.77;;;5.65;;
65583;SDS011;62116;43.582;1.470;2022-12-18T06:46:33;9.98;;;5.70;;
65583;SDS011;62116;43.582;1.470;2022-12-18T06:48:59;10.70;;;5.10;;
65583;SDS011;62116;43.582;1.470;2022-12-18T06:51:24;8.77;;;5.60;;
65583;SDS011;62116;43.582;1.470;2022-12-18T06:53:50;8.27;;;5.43;;
65583;SDS011;62116;43.582;1.470;2022-12-18T06:56:15;8.23;;;5.25;;
65583;SDS011;62116;43.582;1.470;2022-12-18T06:58:41;9.85;;;5.32;;
65583;SDS011;62116;43.582;1.470;2022-12-18T07:01:08;9.80;;;5.70;;
65583;SDS011;62116;43.582;1.470;2022-12-18T07:03:35;8.75;;;5.30;;
65583;SDS011;62116;43.582;1.470;2022-12-18T07:06:01;8.85;;;5.60;;
65583;SDS011;62116;43.582;1.470;2022-12-18T07:08:29;7.45;;;4.97;;
65583;SDS011;62116;43.582;1.470;2022-12-18T07:10:55;10.05;;;5.38;;
65583;SDS011;62116;43.582;1.470;2022-12-18T07:13:21;9.80;;;5.57;;
65583;SDS011;62116;43.582;1.470;2022-12-18T07:15:46;7.90;;;5.13;;
65583;SDS011;62116;43.582;1.470;2022-12-18T07:18:11;7.85;;;4.85;;
65583;SDS011;62116;43.582;1.470;2022-12-18T07:20:37;9.60;;;5.57;;
65583;SDS011;62116;43.582;1.470;2022-12-18T07:23:03;11.85;;;5.78;;
65583;SDS011;62116;43.582;1.470;2022-12-18T07:25:30;10.30;;;5.90;;
65583;SDS011;62116;43.582;1.470;2022-12-18T07:27:58;10.63;;;6.30;;
65583;SDS011;62116;43.582;1.470;2022-12-18T07:30:24;10.23;;;6.10;;
65583;SDS011;62116;43.582;1.470;2022-12-18T07:32:49;9.43;;;5.32;;
65583;SDS011;62116;43.582;1.470;2022-12-18T07:35:14;11.45;;;6.32;;
65583;SDS011;62116;43.582;1.470;2022-12-18T07:37:40;12.38;;;6.28;;
65583;SDS011;62116;43.582;1.470;2022-12-18T07:40:06;11.10;;;6.07;;
65583;SDS011;62116;43.582;1.470;2022-12-18T07:42:31;11.60;;;6.15;;
65583;SDS011;62116;43.582;1.470;2022-12-18T07:44:57;11.23;;;6.20;;
65583;SDS011;62116;43.582;1.470;2022-12-18T07:47:23;12.55;;;6.68;;
65583;SDS011;62116;43.582;1.470;2022-12-18T07:49:49;11.80;;;6.32;;
65583;SDS011;62116;43.582;1.470;2022-12-18T07:52:14;10.25;;;6.10;;
65583;SDS011;62116;43.582;1.470;2022-12-18T07:54:40;10.13;;;5.68;;
65583;SDS011;62116;43.582;1.470;2022-12-18T07:57:06;8.93;;;5.18;;
65583;SDS011;62116;43.582;1.470;2022-12-18T07:59:32;12.48;;;5.80;;
65583;SDS011;62116;43.582;1.470;2022-12-18T08:01:57;11.40;;;5.82;;
65583;SDS011;62116;43.582;1.470;2022-12-18T08:04:23;11.77;;;5.95;;
65583;SDS011;62116;43.582;1.470;2022-12-18T08:06:49;10.05;;;5.47;;
65583;SDS011;62116;43.582;1.470;2022-12-18T08:09:14;10.25;;;5.53;;
65583;SDS011;62116;43.582;1.470;2022-12-18T08:11:39;16.50;;;5.78;;
65583;SDS011;62116;43.582;1.470;2022-12-18T08:14:05;10.38;;;5.45;;
65583;SDS011;62116;43.582;1.470;2022-12-18T08:16:30;10.93;;;5.80;;
65583;SDS011;62116;43.582;1.470;2022-12-18T08:18:56;10.07;;;5.50;;
65583;SDS011;62116;43.582;1.470;2022-12-18T08:21:26;9.32;;;5.70;;
65583;SDS011;62116;43.582;1.470;2022-12-18T08:23:53;10.88;;;5.13;;
65583;SDS011;62116;43.582;1.470;2022-12-18T08:26:20;10.07;;;5.50;;
65583;SDS011;62116;43.582;1.470;2022-12-18T08:28:46;10.45;;;5.05;;
65583;SDS011;62116;43.582;1.470;2022-12-18T08:31:11;8.18;;;5.05;;
65583;SDS011;62116;43.582;1.470;2022-12-18T08:33:37;10.93;;;5.53;;
65583;SDS011;62116;43.582;1.470;2022-12-18T08:36:03;8.52;;;5.07;;
65583;SDS011;62116;43.582;1.470;2022-12-18T08:38:29;12.85;;;5.00;;
65583;SDS011;62116;43.582;1.470;2022-12-18T08:40:59;9.95;;;4.65;;
65583;SDS011;62116;43.582;1.470;2022-12-18T08:43:29;9.77;;;4.90;;
65583;SDS011;62116;43.582;1.470;2022-12-18T08:46:13;9.82;;;5.00;;
65583;SDS011;62116;43.582;1.470;2022-12-18T08:48:39;9.05;;;4.97;;
65583;SDS011;62116;43.582;1.470;2022-12-18T08:51:04;9.85;;;4.55;;
65583;SDS011;62116;43.582;1.470;2022-12-18T08:53:30;7.70;;;4.43;;
65583;SDS011;62116;43.582;1.470;2022-12-18T08:55:56;8.75;;;4.60;;
65583;SDS011;62116;43.582;1.470;2022-12-18T08:58:22;9.77;;;4.93;;
65583;SDS011;62116;43.582;1.470;2022-12-18T09:00:47;9.73;;;4.57;;
65583;SDS011;62116;43.582;1.470;2022-12-18T09:03:17;9.05;;;4.75;;
65583;SDS011;62116;43.582;1.470;2022-12-18T09:05:45;8.70;;;4.72;;
65583;SDS011;62116;43.582;1.470;2022-12-18T09:08:11;8.43;;;5.18;;
65583;SDS011;62116;43.582;1.470;2022-12-18T09:10:43;7.90;;;4.60;;
65583;SDS011;62116;43.582;1.470;2022-12-18T09:13:10;9.35;;;4.38;;
65583;SDS011;62116;43.582;1.470;2022-12-18T09:15:40;11.20;;;4.07;;
65583;SDS011;62116;43.582;1.470;2022-12-18T09:18:09;6.93;;;4.00;;
65583;SDS011;62116;43.582;1.470;2022-12-18T09:20:35;8.45;;;4.43;;
65583;SDS011;62116;43.582;1.470;2022-12-18T09:23:02;6.85;;;4.03;;
65583;SDS011;62116;43.582;1.470;2022-12-18T09:25:28;8.80;;;4.40;;
65583;SDS011;62116;43.582;1.470;2022-12-18T09:27:58;9.82;;;4.63;;
65583;SDS011;62116;43.582;1.470;2022-12-18T09:30:40;9.02;;;4.03;;
65583;SDS011;62116;43.582;1.470;2022-12-18T09:33:06;6.85;;;3.90;;
65583;SDS011;62116;43.582;1.470;2022-12-18T09:35:32;6.97;;;3.92;;
65583;SDS011;62116;43.582;1.470;2022-12-18T09:38:00;10.75;;;4.75;;
65583;SDS011;62116;43.582;1.470;2022-12-18T09:40:26;7.32;;;4.50;;
65583;SDS011;62116;43.582;1.470;2022-12-18T09:42:58;7.30;;;4.00;;
65583;SDS011;62116;43.582;1.470;2022-12-18T09:45:25;8.82;;;4.03;;
65583;SDS011;62116;43.582;1.470;2022-12-18T09:47:52;6.63;;;3.70;;
65583;SDS011;62116;43.582;1.470;2022-12-18T09:52:59;5.55;;;3.45;;
65583;SDS011;62116;43.582;1.470;2022-12-18T09:55:32;7.60;;;3.67;;
65583;SDS011;62116;43.582;1.470;2022-12-18T09:58:02;5.77;;;3.10;;
65583;SDS011;62116;43.582;1.470;2022-12-18T10:00:32;7.15;;;3.28;;
65583;SDS011;62116;43.582;1.470;2022-12-18T10:03:02;7.18;;;3.50;;
65583;SDS011;62116;43.582;1.470;2022-12-18T10:05:38;6.45;;;3.15;;
65583;SDS011;62116;43.582;1.470;2022-12-18T10:08:22;5.28;;;3.10;;
65583;SDS011;62116;43.582;1.470;2022-12-18T10:13:45;6.28;;;3.10;;
65583;SDS011;62116;43.582;1.470;2022-12-18T10:19:22;5.78;;;3.20;;
65583;SDS011;62116;43.582;1.470;2022-12-18T10:27:26;7.43;;;3.13;;
65583;SDS011;62116;43.582;1.470;2022-12-18T10:29:53;4.88;;;2.70;;
65583;SDS011;62116;43.582;1.470;2022-12-18T10:32:29;3.70;;;2.60;;
65583;SDS011;62116;43.582;1.470;2022-12-18T10:34:56;5.45;;;2.70;;
65583;SDS011;62116;43.582;1.470;2022-12-18T10:37:24;5.40;;;2.78;;
65583;SDS011;62116;43.582;1.470;2022-12-18T10:42:40;6.15;;;2.50;;
65583;SDS011;62116;43.582;1.470;2022-12-18T10:45:14;4.95;;;2.80;;
65583;SDS011;62116;43.582;1.470;2022-12-18T10:47:46;4.00;;;2.58;;
65583;SDS011;62116;43.582;1.470;2022-12-18T10:50:32;4.32;;;2.70;;
65583;SDS011;62116;43.582;1.470;2022-12-18T10:53:01;4.13;;;2.42;;
65583;SDS011;62116;43.582;1.470;2022-12-18T10:55:32;5.07;;;2.50;;
65583;SDS011;62116;43.582;1.470;2022-12-18T10:58:16;5.28;;;2.33;;
65583;SDS011;62116;43.582;1.470;2022-12-18T11:01:22;4.05;;;2.30;;
65583;SDS011;62116;43.582;1.470;2022-12-18T11:06:08;4.68;;;2.40;;
65583;SDS011;62116;43.582;1.470;2022-12-18T11:08:36;5.75;;;2.45;;
65583;SDS011;62116;43.582;1.470;2022-12-18T11:11:02;5.40;;;2.67;;
65583;SDS011;62116;43.582;1.470;2022-12-18T11:13:32;4.93;;;2.70;;
65583;SDS011;62116;43.582;1.470;2022-12-18T11:15:58;4.13;;;2.40;;
65583;SDS011;62116;43.582;1.470;2022-12-18T11:18:33;4.55;;;2.33;;
65583;SDS011;62116;43.582;1.470;2022-12-18T11:21:07;4.53;;;2.55;;
65583;SDS011;62116;43.582;1.470;2022-12-18T11:23:34;4.95;;;2.63;;
65583;SDS011;62116;43.582;1.470;2022-12-18T11:26:01;6.32;;;2.92;;
65583;SDS011;62116;43.582;1.470;2022-12-18T11:33:41;5.30;;;2.38;;
65583;SDS011;62116;43.582;1.470;2022-12-18T11:36:09;4.13;;;2.50;;
65583;SDS011;62116;43.582;1.470;2022-12-18T11:38:36;4.88;;;2.55;;
65583;SDS011;62116;43.582;1.470;2022-12-18T11:44:22;5.25;;;2.53;;
65583;SDS011;62116;43.582;1.470;2022-12-18T11:46:51;6.50;;;2.20;;
65583;SDS011;62116;43.582;1.470;2022-12-18T11:49:34;3.90;;;2.42;;
65583;SDS011;62116;43.582;1.470;2022-12-18T11:54:52;4.15;;;2.15;;
65583;SDS011;62116;43.582;1.470;2022-12-18T12:13:30;6.13;;;2.95;;
65583;SDS011;62116;43.582;1.470;2022-12-18T12:21:54;5.63;;;2.85;;
65583;SDS011;62116;43.582;1.470;2022-12-18T12:24:49;5.47;;;3.50;;
65583;SDS011;62116;43.582;1.470;2022-12-18T12:38:27;6.15;;;2.80;;
65583;SDS011;62116;43.582;1.470;2022-12-18T12:40:58;7.78;;;3.20;;
65583;SDS011;62116;43.582;1.470;2022-12-18T12:43:32;4.97;;;2.80;;
65583;SDS011;62116;43.582;1.470;2022-12-18T12:46:10;5.72;;;3.00;;
65583;SDS011;62116;43.582;1.470;2022-12-18T12:48:44;7.35;;;2.80;;
65583;SDS011;62116;43.582;1.470;2022-12-18T12:51:16;7.38;;;2.70;;
65583;SDS011;62116;43.582;1.470;2022-12-18T12:53:50;5.75;;;2.90;;
65583;SDS011;62116;43.582;1.470;2022-12-18T12:56:18;4.85;;;2.88;;
65583;SDS011;62116;43.582;1.470;2022-12-18T13:09:09;8.32;;;2.90;;
65583;SDS011;62116;43.582;1.470;2022-12-18T13:11:36;6.10;;;3.00;;
65583;SDS011;62116;43.582;1.470;2022-12-18T13:14:28;4.50;;;2.85;;
65583;SDS011;62116;43.582;1.470;2022-12-18T13:19:39;6.18;;;2.78;;
65583;SDS011;62116;43.582;1.470;2022-12-18T13:22:04;4.97;;;2.92;;
65583;SDS011;62116;43.582;1.470;2022-12-18T13:24:45;5.03;;;2.92;;
65583;SDS011;62116;43.582;1.470;2022-12-18T13:30:56;7.05;;;3.15;;
65583;SDS011;62116;43.582;1.470;2022-12-18T13:38:21;7.63;;;3.30;;
65583;SDS011;62116;43.582;1.470;2022-12-18T13:43:20;5.75;;;3.10;;
65583;SDS011;62116;43.582;1.470;2022-12-18T13:46:02;7.07;;;3.33;;
65583;SDS011;62116;43.582;1.470;2022-12-18T13:48:41;5.77;;;3.20;;
65583;SDS011;62116;43.582;1.470;2022-12-18T13:51:19;5.68;;;3.40;;
65583;SDS011;62116;43.582;1.470;2022-12-18T13:53:57;6.03;;;3.20;;
65583;SDS011;62116;43.582;1.470;2022-12-18T13:56:42;5.10;;;3.20;;
65583;SDS011;62116;43.582;1.470;2022-12-18T14:01:42;6.00;;;3.15;;
65583;SDS011;62116;43.582;1.470;2022-12-18T14:04:12;6.63;;;2.95;;
65583;SDS011;62116;43.582;1.470;2022-12-18T14:06:43;7.28;;;2.75;;
65583;SDS011;62116;43.582;1.470;2022-12-18T14:09:12;5.43;;;2.85;;
65583;SDS011;62116;43.582;1.470;2022-12-18T14:11:46;5.50;;;2.83;;
65583;SDS011;62116;43.582;1.470;2022-12-18T14:14:16;5.53;;;2.92;;
65583;SDS011;62116;43.582;1.470;2022-12-18T14:16:43;6.00;;;2.75;;
65583;SDS011;62116;43.582;1.470;2022-12-18T14:19:14;5.53;;;3.00;;
65583;SDS011;62116;43.582;1.470;2022-12-18T14:21:46;5.07;;;3.00;;
65583;SDS011;62116;43.582;1.470;2022-12-18T14:24:14;5.78;;;3.22;;
65583;SDS011;62116;43.582;1.470;2022-12-18T14:26:47;8.57;;;3.53;;
65583;SDS011;62116;43.582;1.470;2022-12-18T14:29:18;6.25;;;2.97;;
65583;SDS011;62116;43.582;1.470;2022-12-18T14:31:43;5.83;;;3.27;;
65583;SDS011;62116;43.582;1.470;2022-12-18T14:34:15;5.00;;;2.70;;
65583;SDS011;62116;43.582;1.470;2022-12-18T14:36:41;7.90;;;2.88;;
65583;SDS011;62116;43.582;1.470;2022-12-18T14:39:20;6.15;;;3.20;;
65583;SDS011;62116;43.582;1.470;2022-12-18T14:41:45;6.13;;;3.20;;
65583;SDS011;62116;43.582;1.470;2022-12-18T14:44:14;5.35;;;2.90;;
65583;SDS011;62116;43.582;1.470;2022-12-18T14:46:39;4.80;;;2.90;;
65583;SDS011;62116;43.582;1.470;2022-12-18T14:52:04;5.40;;;3.10;;
65583;SDS011;62116;43.582;1.470;2022-12-18T14:54:31;6.00;;;2.90;;
65583;SDS011;62116;43.582;1.470;2022-12-18T14:57:03;7.07;;;3.05;;
65583;SDS011;62116;43.582;1.470;2022-12-18T14:59:37;7.75;;;2.88;;
65583;SDS011;62116;43.582;1.470;2022-12-18T15:05:04;7.05;;;2.92;;
65583;SDS011;62116;43.582;1.470;2022-12-18T15:07:43;6.00;;;2.92;;
65583;SDS011;62116;43.582;1.470;2022-12-18T15:10:20;5.85;;;2.72;;
65583;SDS011;62116;43.582;1.470;2022-12-18T15:20:40;9.10;;;3.03;;
65583;SDS011;62116;43.582;1.470;2022-12-18T15:23:22;6.38;;;3.30;;
65583;SDS011;62116;43.582;1.470;2022-12-18T15:26:01;8.93;;;3.25;;
65583;SDS011;62116;43.582;1.470;2022-12-18T15:33:35;6.88;;;3.00;;
65583;SDS011;62116;43.582;1.470;2022-12-18T15:36:03;6.78;;;3.20;;
65583;SDS011;62116;43.582;1.470;2022-12-18T15:38:30;5.85;;;2.95;;
65583;SDS011;62116;43.582;1.470;2022-12-18T15:40:56;6.57;;;3.05;;
65583;SDS011;62116;43.582;1.470;2022-12-18T15:43:22;7.00;;;3.17;;
65583;SDS011;62116;43.582;1.470;2022-12-18T15:48:34;8.47;;;3.50;;
65583;SDS011;62116;43.582;1.470;2022-12-18T15:51:04;6.88;;;3.15;;
65583;SDS011;62116;43.582;1.470;2022-12-18T15:53:34;6.60;;;3.55;;
65583;SDS011;62116;43.582;1.470;2022-12-18T15:56:00;6.32;;;3.17;;
65583;SDS011;62116;43.582;1.470;2022-12-18T15:58:44;5.95;;;3.40;;
65583;SDS011;62116;43.582;1.470;2022-12-18T16:01:09;6.35;;;2.90;;
65583;SDS011;62116;43.582;1.470;2022-12-18T16:03:36;8.35;;;3.00;;
65583;SDS011;62116;43.582;1.470;2022-12-18T16:06:01;5.75;;;2.92;;
65583;SDS011;62116;43.582;1.470;2022-12-18T16:08:30;7.07;;;3.38;;
65583;SDS011;62116;43.582;1.470;2022-12-18T16:10:56;10.52;;;3.65;;
65583;SDS011;62116;43.582;1.470;2022-12-18T16:13:22;8.10;;;3.85;;
65583;SDS011;62116;43.582;1.470;2022-12-18T16:15:48;9.23;;;3.88;;
65583;SDS011;62116;43.582;1.470;2022-12-18T16:18:14;8.40;;;3.55;;
65583;SDS011;62116;43.582;1.470;2022-12-18T16:20:39;8.05;;;3.60;;
65583;SDS011;62116;43.582;1.470;2022-12-18T16:23:05;8.68;;;3.40;;
65583;SDS011;62116;43.582;1.470;2022-12-18T16:25:31;9.52;;;3.40;;
65583;SDS011;62116;43.582;1.470;2022-12-18T16:27:56;9.02;;;3.28;;
65583;SDS011;62116;43.582;1.470;2022-12-18T16:30:23;7.75;;;3.42;;
65583;SDS011;62116;43.582;1.470;2022-12-18T16:32:52;7.15;;;3.30;;
65583;SDS011;62116;43.582;1.470;2022-12-18T16:35:17;10.38;;;3.65;;
65583;SDS011;62116;43.582;1.470;2022-12-18T16:37:43;8.45;;;3.75;;
65583;SDS011;62116;43.582;1.470;2022-12-18T16:40:10;8.50;;;3.85;;
65583;SDS011;62116;43.582;1.470;2022-12-18T16:42:37;9.23;;;3.83;;
65583;SDS011;62116;43.582;1.470;2022-12-18T16:45:04;7.18;;;3.17;;
65583;SDS011;62116;43.582;1.470;2022-12-18T16:47:31;6.53;;;3.42;;
65583;SDS011;62116;43.582;1.470;2022-12-18T16:49:57;9.80;;;3.55;;
65583;SDS011;62116;43.582;1.470;2022-12-18T16:52:23;9.50;;;3.45;;
65583;SDS011;62116;43.582;1.470;2022-12-18T16:54:48;7.00;;;3.22;;
65583;SDS011;62116;43.582;1.470;2022-12-18T16:57:17;12.05;;;3.63;;
65583;SDS011;62116;43.582;1.470;2022-12-18T16:59:44;9.93;;;3.92;;
65583;SDS011;62116;43.582;1.470;2022-12-18T17:02:20;7.82;;;3.83;;
65583;SDS011;62116;43.582;1.470;2022-12-18T17:04:46;8.30;;;3.70;;
65583;SDS011;62116;43.582;1.470;2022-12-18T17:07:12;9.65;;;3.78;;
65583;SDS011;62116;43.582;1.470;2022-12-18T17:09:38;7.15;;;3.47;;